»·PEaware :: UAL384 KSAN-KSFO

UAL384 :: KSAN-KSFO

FLIGHT INFORMATION

Flight Status: Arrived
Operator:
United Airlines
More flights by this operator :: More flights under this callsign
Pilot: Jacob A. (30091)
Aircraft: BOEING 737-800
(B738)
More flights by this aircraft type
Origin: KSAN San Diego Intl-Lindbergh
United States
Destination: KSFO San Francisco Intl
United States
More flights between these airports :: More routes between these airports
Route: PADRZ2 IKAYE RIZIN SPLNT STOKD SERFR SERFR4
File this flight plan on PilotEdge
Remarks: RMK / SIMBRIEF
Altitude:
(Current/Filed)
32,000ft
Speed:
(Current/Filed)
439kts
Departed: 26-Jul-20 05:01 PM
Arrived: 26-Jul-20 06:05 PM
Distance/Time
Traveled:
388nm/1:04
Distance/Time
To Go:
Arrived

Flight Plot

Page will automatically refresh every two minutes.


Map Options




Map Legend


Flown Route
Filed Route
Departure Airport
Arrival Airport
Navaid (VOR, NDB)
Fix

Horizontal Profiles

Position Reports

Time Latitude Longitude Heading Altitude Ground
Speed
26-Jul-20 16:29 32.732352 -117.195952 308 27ft 0kts
26-Jul-20 16:30 32.732352 -117.195952 308 27ft 0kts
26-Jul-20 16:31 32.732352 -117.195952 308 27ft 0kts
26-Jul-20 16:32 32.732352 -117.195952 308 26ft 0kts
26-Jul-20 16:33 32.732352 -117.195952 308 26ft 0kts
26-Jul-20 16:34 32.732352 -117.195952 308 26ft 0kts
26-Jul-20 16:35 32.732352 -117.195952 308 26ft 0kts
26-Jul-20 16:36 32.732352 -117.195952 308 26ft 0kts
26-Jul-20 16:37 32.732352 -117.195952 308 26ft 0kts
26-Jul-20 16:38 32.732352 -117.195952 308 26ft 0kts
26-Jul-20 16:39 32.732352 -117.195952 308 26ft 0kts
26-Jul-20 16:40 32.732352 -117.195952 308 26ft 0kts
26-Jul-20 16:41 32.732352 -117.195952 308 26ft 0kts
26-Jul-20 16:42 32.732352 -117.195952 308 26ft 0kts
26-Jul-20 16:44 32.732352 -117.195952 308 26ft 0kts
26-Jul-20 16:45 32.732352 -117.195952 308 26ft 0kts
26-Jul-20 16:46 32.732352 -117.195952 308 26ft 0kts
26-Jul-20 16:47 32.732337 -117.195930 307 26ft 1kts
26-Jul-20 16:48 32.732064 -117.195299 297 26ft 2kts
26-Jul-20 16:49 32.731826 -117.195097 19 26ft 0kts
26-Jul-20 16:50 32.731826 -117.195096 19 26ft 0kts
26-Jul-20 16:51 32.731826 -117.195096 19 26ft 0kts
26-Jul-20 16:52 32.731857 -117.195084 19 26ft 0kts
26-Jul-20 16:53 32.731929 -117.195055 19 26ft 0kts
26-Jul-20 16:54 32.732060 -117.194999 21 26ft 1kts
26-Jul-20 16:55 32.733431 -117.193465 99 26ft 10kts
26-Jul-20 16:56 32.732461 -117.189402 106 26ft 15kts
26-Jul-20 16:57 32.731070 -117.183659 106 27ft 20kts
26-Jul-20 16:58 32.729622 -117.177676 106 27ft 14kts
26-Jul-20 16:59 32.729619 -117.177266 75 27ft 0kts
26-Jul-20 16:59 32.729964 -117.176728 20 27ft 5kts
26-Jul-20 17:01 32.735186 -117.196473 286 73ft 173kts
26-Jul-20 17:02 32.761575 -117.253373 315 2410ft 245kts
26-Jul-20 17:02 32.796350 -117.312462 304 5028ft 275kts
26-Jul-20 17:03 32.843945 -117.386793 307 8325ft 293kts
26-Jul-20 17:04 32.896505 -117.465427 307 10668ft 335kts
26-Jul-20 17:05 32.957497 -117.557851 306 13113ft 364kts
26-Jul-20 17:06 33.019684 -117.655381 304 15783ft 377kts
26-Jul-20 17:07 33.088224 -117.752628 316 18180ft 392kts
26-Jul-20 17:08 33.172925 -117.838011 318 20325ft 406kts
26-Jul-20 17:09 33.258013 -117.929207 315 22269ft 416kts
26-Jul-20 17:10 33.344882 -118.022720 313 24029ft 427kts
26-Jul-20 17:11 33.430506 -118.123429 309 25621ft 436kts
26-Jul-20 17:12 33.513607 -118.231111 307 27063ft 445kts
26-Jul-20 17:13 33.598419 -118.341220 309 28398ft 456kts
26-Jul-20 17:14 33.687525 -118.451584 308 29586ft 466kts
26-Jul-20 17:15 33.778714 -118.563073 309 30916ft 469kts
26-Jul-20 17:16 33.870158 -118.674467 308 31992ft 470kts
26-Jul-20 17:17 33.961079 -118.785240 308 31992ft 463kts
26-Jul-20 17:18 34.051732 -118.896033 309 31997ft 468kts
26-Jul-20 17:19 34.138047 -119.012152 301 32013ft 460kts
26-Jul-20 17:20 34.209470 -119.139468 296 32015ft 457kts
26-Jul-20 17:21 34.276687 -119.269451 296 32018ft 456kts
26-Jul-20 17:22 34.343649 -119.399673 296 32018ft 456kts
26-Jul-20 17:23 34.415315 -119.526447 305 32019ft 462kts
26-Jul-20 17:24 34.502324 -119.641592 309 32018ft 464kts
26-Jul-20 17:25 34.591939 -119.753989 309 32018ft 464kts
26-Jul-20 17:26 34.682362 -119.866196 309 32018ft 465kts
26-Jul-20 17:27 34.772586 -119.978109 309 31999ft 464kts
26-Jul-20 17:28 34.862639 -120.090031 310 32000ft 460kts
26-Jul-20 17:29 34.951923 -120.201317 310 31999ft 462kts
26-Jul-20 17:30 35.041934 -120.313870 311 31999ft 462kts
26-Jul-20 17:31 35.132628 -120.423219 314 32000ft 463kts
26-Jul-20 17:32 35.227691 -120.529610 314 32000ft 464kts
26-Jul-20 17:33 35.322908 -120.636484 315 32000ft 463kts
26-Jul-20 17:34 35.417305 -120.742772 314 31999ft 462kts
26-Jul-20 17:35 35.514582 -120.845820 319 32000ft 463kts
26-Jul-20 17:36 35.617047 -120.941710 320 31535ft 467kts
26-Jul-20 17:37 35.719169 -121.036720 321 30133ft 456kts
26-Jul-20 17:38 35.819243 -121.130149 322 28725ft 443kts
26-Jul-20 17:39 35.916143 -121.220874 322 27610ft 435kts
26-Jul-20 17:40 36.011444 -121.310367 322 26505ft 425kts
26-Jul-20 17:41 36.106497 -121.394116 327 25402ft 418kts
26-Jul-20 17:42 36.203999 -121.470375 328 24299ft 410kts
26-Jul-20 17:43 36.299386 -121.544954 328 23200ft 404kts
26-Jul-20 17:44 36.393715 -121.618899 328 22101ft 401kts
26-Jul-20 17:45 36.487002 -121.692236 327 20937ft 396kts
26-Jul-20 17:46 36.578862 -121.765026 327 19332ft 388kts
26-Jul-20 17:47 36.666970 -121.834907 328 17720ft 371kts
26-Jul-20 17:48 36.756367 -121.896218 343 16003ft 362kts
26-Jul-20 17:49 36.853202 -121.925357 348 14274ft 354kts
26-Jul-20 17:50 36.948978 -121.952234 346 12873ft 352kts
26-Jul-20 17:51 37.039421 -121.987125 343 11398ft 325kts
26-Jul-20 17:52 37.121694 -122.019293 343 9995ft 295kts
26-Jul-20 17:53 37.198639 -122.049384 342 8709ft 288kts
26-Jul-20 17:54 37.273640 -122.078789 342 7968ft 274kts
26-Jul-20 17:55 37.346191 -122.106882 342 6702ft 262kts
26-Jul-20 17:56 37.413234 -122.130050 344 5274ft 237kts
26-Jul-20 17:57 37.473827 -122.149673 341 3876ft 212kts
26-Jul-20 17:58 37.523681 -122.168641 327 2984ft 150kts
26-Jul-20 17:59 37.548378 -122.208691 295 2579ft 144kts
26-Jul-20 18:00 37.567293 -122.253036 296 1828ft 143kts
26-Jul-20 18:01 37.585830 -122.297040 299 1083ft 133kts
26-Jul-20 18:02 37.603211 -122.338077 299 388ft 129kts
26-Jul-20 18:03 37.618505 -122.374509 297 20ft 63kts
26-Jul-20 18:04 37.619537 -122.379486 226 19ft 0kts
26-Jul-20 18:05 37.619402 -122.379669 227 20ft 3kts
26-Jul-20 18:06 37.618315 -122.380815 236 19ft 0kts
26-Jul-20 18:07 37.618315 -122.380815 236 19ft 0kts
26-Jul-20 18:08 37.618315 -122.380815 236 19ft 0kts

Navigation Log

Ident Type
Flight plan parsing failed, navigation log unavailable